sensor_id;sensor_type;location;lat;lon;timestamp;P1;durP1;ratioP1;P2;durP2;ratioP2
48891;SDS011;50130;52.150;5.236;2022-09-28T00:02:04;17.0;;;11.8;;
48891;SDS011;50130;52.150;5.236;2022-09-28T00:03:41;19.5;;;12.5;;
48891;SDS011;50130;52.150;5.236;2022-09-28T00:05:18;18.41;;;11.8;;
48891;SDS011;50130;52.150;5.236;2022-09-28T00:08:30;18.3;;;12.2;;
48891;SDS011;50130;52.150;5.236;2022-09-28T00:10:08;19.61;;;12.6;;
48891;SDS011;50130;52.150;5.236;2022-09-28T00:11:45;18.41;;;11.5;;
48891;SDS011;50130;52.150;5.236;2022-09-28T00:13:22;16.2;;;12.4;;
48891;SDS011;50130;52.150;5.236;2022-09-28T00:16:37;16.7;;;11.7;;
48891;SDS011;50130;52.150;5.236;2022-09-28T00:18:16;14.1;;;10.9;;
48891;SDS011;50130;52.150;5.236;2022-09-28T00:19:52;17.3;;;12.0;;
48891;SDS011;50130;52.150;5.236;2022-09-28T00:24:46;16.2;;;12.1;;
48891;SDS011;50130;52.150;5.236;2022-09-28T00:26:23;17.8;;;12.2;;
48891;SDS011;50130;52.150;5.236;2022-09-28T00:28:00;16.11;;;11.7;;
48891;SDS011;50130;52.150;5.236;2022-09-28T00:31:12;17.0;;;12.1;;
48891;SDS011;50130;52.150;5.236;2022-09-28T00:32:48;19.7;;;12.2;;
48891;SDS011;50130;52.150;5.236;2022-09-28T00:34:24;14.2;;;11.0;;
48891;SDS011;50130;52.150;5.236;2022-09-28T00:37:38;16.11;;;12.0;;
48891;SDS011;50130;52.150;5.236;2022-09-28T00:39:14;19.2;;;12.6;;
48891;SDS011;50130;52.150;5.236;2022-09-28T00:40:52;15.9;;;11.3;;
48891;SDS011;50130;52.150;5.236;2022-09-28T00:45:08;14.1;;;11.1;;
48891;SDS011;50130;52.150;5.236;2022-09-28T00:46:44;16.11;;;10.6;;
48891;SDS011;50130;52.150;5.236;2022-09-28T00:48:20;16.4;;;11.8;;
48891;SDS011;50130;52.150;5.236;2022-09-28T00:49:58;19.7;;;13.1;;
48891;SDS011;50130;52.150;5.236;2022-09-28T00:51:38;17.7;;;12.0;;
48891;SDS011;50130;52.150;5.236;2022-09-28T00:53:19;19.7;;;11.3;;
48891;SDS011;50130;52.150;5.236;2022-09-28T00:56:42;15.7;;;11.0;;
48891;SDS011;50130;52.150;5.236;2022-09-28T00:58:25;17.3;;;9.31;;
48891;SDS011;50130;52.150;5.236;2022-09-28T01:00:05;18.91;;;12.7;;
48891;SDS011;50130;52.150;5.236;2022-09-28T01:01:43;13.5;;;10.7;;
48891;SDS011;50130;52.150;5.236;2022-09-28T01:04:56;17.7;;;11.7;;
48891;SDS011;50130;52.150;5.236;2022-09-28T01:06:35;18.41;;;11.9;;
48891;SDS011;50130;52.150;5.236;2022-09-28T01:08:13;15.6;;;10.9;;
48891;SDS011;50130;52.150;5.236;2022-09-28T01:09:53;19.2;;;10.7;;
48891;SDS011;50130;52.150;5.236;2022-09-28T01:13:09;13.8;;;10.0;;
48891;SDS011;50130;52.150;5.236;2022-09-28T01:14:45;17.41;;;10.4;;
48891;SDS011;50130;52.150;5.236;2022-09-28T01:16:24;15.1;;;10.3;;
48891;SDS011;50130;52.150;5.236;2022-09-28T01:18:21;16.3;;;12.0;;
48891;SDS011;50130;52.150;5.236;2022-09-28T01:24:28;15.0;;;10.7;;
48891;SDS011;50130;52.150;5.236;2022-09-28T01:26:25;16.7;;;10.21;;
48891;SDS011;50130;52.150;5.236;2022-09-28T01:29:05;14.8;;;9.81;;
48891;SDS011;50130;52.150;5.236;2022-09-28T01:30:55;16.9;;;10.4;;
48891;SDS011;50130;52.150;5.236;2022-09-28T01:34:27;15.0;;;9.5;;
48891;SDS011;50130;52.150;5.236;2022-09-28T01:36:12;15.8;;;10.3;;
48891;SDS011;50130;52.150;5.236;2022-09-28T01:37:58;17.5;;;9.5;;
48891;SDS011;50130;52.150;5.236;2022-09-28T01:39:39;18.91;;;9.81;;
48891;SDS011;50130;52.150;5.236;2022-09-28T01:41:20;13.3;;;8.9;;
48891;SDS011;50130;52.150;5.236;2022-09-28T01:44:42;12.8;;;9.1;;
48891;SDS011;50130;52.150;5.236;2022-09-28T01:46:23;12.4;;;7.9;;
48891;SDS011;50130;52.150;5.236;2022-09-28T01:48:04;13.3;;;8.71;;
48891;SDS011;50130;52.150;5.236;2022-09-28T01:49:43;15.1;;;8.2;;
48891;SDS011;50130;52.150;5.236;2022-09-28T01:53:15;13.3;;;8.71;;
48891;SDS011;50130;52.150;5.236;2022-09-28T01:54:59;9.0;;;6.9;;
48891;SDS011;50130;52.150;5.236;2022-09-28T01:56:42;13.0;;;8.31;;
48891;SDS011;50130;52.150;5.236;2022-09-28T01:58:24;13.2;;;8.5;;
48891;SDS011;50130;52.150;5.236;2022-09-28T02:00:08;9.5;;;6.8;;
48891;SDS011;50130;52.150;5.236;2022-09-28T02:03:32;10.1;;;7.0;;
48891;SDS011;50130;52.150;5.236;2022-09-28T02:05:15;11.1;;;7.0;;
48891;SDS011;50130;52.150;5.236;2022-09-28T02:06:55;10.1;;;6.9;;
48891;SDS011;50130;52.150;5.236;2022-09-28T02:08:39;9.4;;;6.0;;
48891;SDS011;50130;52.150;5.236;2022-09-28T02:12:06;12.8;;;6.7;;
48891;SDS011;50130;52.150;5.236;2022-09-28T02:13:53;13.5;;;6.9;;
48891;SDS011;50130;52.150;5.236;2022-09-28T02:15:38;13.2;;;6.8;;
48891;SDS011;50130;52.150;5.236;2022-09-28T02:17:20;12.0;;;6.8;;
48891;SDS011;50130;52.150;5.236;2022-09-28T02:18:56;6.8;;;5.3;;
48891;SDS011;50130;52.150;5.236;2022-09-28T02:22:16;9.5;;;6.1;;
48891;SDS011;50130;52.150;5.236;2022-09-28T02:24:01;12.6;;;5.9;;
48891;SDS011;50130;52.150;5.236;2022-09-28T02:25:43;9.21;;;5.5;;
48891;SDS011;50130;52.150;5.236;2022-09-28T02:27:26;6.7;;;5.11;;
48891;SDS011;50130;52.150;5.236;2022-09-28T02:30:48;8.81;;;5.5;;
48891;SDS011;50130;52.150;5.236;2022-09-28T02:32:24;8.31;;;6.1;;
48891;SDS011;50130;52.150;5.236;2022-09-28T02:34:05;8.71;;;5.6;;
48891;SDS011;50130;52.150;5.236;2022-09-28T02:35:41;9.4;;;6.2;;
48891;SDS011;50130;52.150;5.236;2022-09-28T02:38:57;7.6;;;5.5;;
48891;SDS011;50130;52.150;5.236;2022-09-28T02:40:34;8.4;;;5.6;;
48891;SDS011;50130;52.150;5.236;2022-09-28T02:42:14;10.0;;;5.6;;
48891;SDS011;50130;52.150;5.236;2022-09-28T02:43:56;11.6;;;6.3;;
48891;SDS011;50130;52.150;5.236;2022-09-28T02:47:35;9.9;;;6.3;;
48891;SDS011;50130;52.150;5.236;2022-09-28T02:49:28;8.5;;;5.5;;
48891;SDS011;50130;52.150;5.236;2022-09-28T02:51:16;11.8;;;6.2;;
48891;SDS011;50130;52.150;5.236;2022-09-28T02:53:06;10.3;;;6.2;;
48891;SDS011;50130;52.150;5.236;2022-09-28T02:55:50;9.9;;;6.1;;
48891;SDS011;50130;52.150;5.236;2022-09-28T02:57:46;9.5;;;5.4;;
48891;SDS011;50130;52.150;5.236;2022-09-28T02:59:43;7.4;;;4.91;;
48891;SDS011;50130;52.150;5.236;2022-09-28T03:01:25;8.1;;;5.6;;
48891;SDS011;50130;52.150;5.236;2022-09-28T03:03:13;6.0;;;4.7;;
48891;SDS011;50130;52.150;5.236;2022-09-28T03:05:00;5.6;;;4.8;;
48891;SDS011;50130;52.150;5.236;2022-09-28T03:08:34;6.7;;;5.5;;
48891;SDS011;50130;52.150;5.236;2022-09-28T03:10:18;9.5;;;5.6;;
48891;SDS011;50130;52.150;5.236;2022-09-28T03:12:03;11.2;;;5.11;;
48891;SDS011;50130;52.150;5.236;2022-09-28T03:13:44;9.0;;;4.7;;
48891;SDS011;50130;52.150;5.236;2022-09-28T03:15:21;8.31;;;4.7;;
48891;SDS011;50130;52.150;5.236;2022-09-28T03:18:35;8.4;;;4.41;;
48891;SDS011;50130;52.150;5.236;2022-09-28T03:20:13;7.2;;;4.61;;
48891;SDS011;50130;52.150;5.236;2022-09-28T03:21:50;7.8;;;4.5;;
48891;SDS011;50130;52.150;5.236;2022-09-28T03:25:02;9.31;;;4.3;;
48891;SDS011;50130;52.150;5.236;2022-09-28T03:26:39;7.2;;;4.5;;
48891;SDS011;50130;52.150;5.236;2022-09-28T03:28:16;7.9;;;4.5;;
48891;SDS011;50130;52.150;5.236;2022-09-28T03:31:28;9.21;;;4.5;;
48891;SDS011;50130;52.150;5.236;2022-09-28T03:33:05;6.6;;;4.1;;
48891;SDS011;50130;52.150;5.236;2022-09-28T03:34:42;5.4;;;4.1;;
48891;SDS011;50130;52.150;5.236;2022-09-28T03:36:18;7.4;;;4.0;;
48891;SDS011;50130;52.150;5.236;2022-09-28T03:39:31;6.8;;;3.7;;
48891;SDS011;50130;52.150;5.236;2022-09-28T03:41:08;5.2;;;3.6;;
48891;SDS011;50130;52.150;5.236;2022-09-28T03:42:44;7.5;;;3.1;;
48891;SDS011;50130;52.150;5.236;2022-09-28T03:45:58;5.7;;;3.2;;
48891;SDS011;50130;52.150;5.236;2022-09-28T03:47:36;8.5;;;3.2;;
48891;SDS011;50130;52.150;5.236;2022-09-28T03:49:12;5.11;;;3.1;;
48891;SDS011;50130;52.150;5.236;2022-09-28T03:52:27;7.6;;;3.4;;
48891;SDS011;50130;52.150;5.236;2022-09-28T03:54:03;6.7;;;2.9;;
48891;SDS011;50130;52.150;5.236;2022-09-28T03:55:39;5.8;;;2.6;;
48891;SDS011;50130;52.150;5.236;2022-09-28T03:57:16;5.6;;;2.6;;
48891;SDS011;50130;52.150;5.236;2022-09-28T04:00:28;4.2;;;2.5;;
48891;SDS011;50130;52.150;5.236;2022-09-28T04:02:05;6.0;;;2.6;;
48891;SDS011;50130;52.150;5.236;2022-09-28T04:03:41;5.6;;;2.21;;
48891;SDS011;50130;52.150;5.236;2022-09-28T04:06:54;5.7;;;3.4;;
48891;SDS011;50130;52.150;5.236;2022-09-28T04:08:31;5.3;;;2.6;;
48891;SDS011;50130;52.150;5.236;2022-09-28T04:10:08;6.4;;;2.4;;
48891;SDS011;50130;52.150;5.236;2022-09-28T04:13:21;3.5;;;2.21;;
48891;SDS011;50130;52.150;5.236;2022-09-28T04:14:57;4.0;;;2.21;;
48891;SDS011;50130;52.150;5.236;2022-09-28T04:16:34;3.9;;;2.0;;
48891;SDS011;50130;52.150;5.236;2022-09-28T04:18:10;3.5;;;2.1;;
48891;SDS011;50130;52.150;5.236;2022-09-28T04:21:23;5.0;;;2.0;;
48891;SDS011;50130;52.150;5.236;2022-09-28T04:22:59;4.8;;;2.0;;
48891;SDS011;50130;52.150;5.236;2022-09-28T04:24:35;4.8;;;1.8;;
48891;SDS011;50130;52.150;5.236;2022-09-28T04:30:45;4.7;;;1.9;;
48891;SDS011;50130;52.150;5.236;2022-09-28T04:33:57;4.61;;;2.0;;
48891;SDS011;50130;52.150;5.236;2022-09-28T04:35:33;4.3;;;1.6;;
48891;SDS011;50130;52.150;5.236;2022-09-28T04:37:09;4.7;;;1.9;;
48891;SDS011;50130;52.150;5.236;2022-09-28T04:40:22;4.41;;;1.9;;
48891;SDS011;50130;52.150;5.236;2022-09-28T04:41:58;3.7;;;1.8;;
48891;SDS011;50130;52.150;5.236;2022-09-28T04:43:35;4.2;;;1.6;;
48891;SDS011;50130;52.150;5.236;2022-09-28T04:46:47;8.81;;;2.1;;
48891;SDS011;50130;52.150;5.236;2022-09-28T04:48:23;3.4;;;1.8;;
48891;SDS011;50130;52.150;5.236;2022-09-28T04:50:00;5.2;;;2.1;;
48891;SDS011;50130;52.150;5.236;2022-09-28T04:51:36;5.0;;;2.0;;
48891;SDS011;50130;52.150;5.236;2022-09-28T04:54:48;4.8;;;1.8;;
48891;SDS011;50130;52.150;5.236;2022-09-28T04:56:24;6.3;;;2.1;;
48891;SDS011;50130;52.150;5.236;2022-09-28T04:58:02;4.91;;;1.8;;
48891;SDS011;50130;52.150;5.236;2022-09-28T05:01:16;4.41;;;2.4;;
48891;SDS011;50130;52.150;5.236;2022-09-28T05:02:54;4.2;;;1.9;;
48891;SDS011;50130;52.150;5.236;2022-09-28T05:04:31;4.3;;;1.8;;
48891;SDS011;50130;52.150;5.236;2022-09-28T05:07:45;5.2;;;2.0;;
48891;SDS011;50130;52.150;5.236;2022-09-28T05:09:21;2.7;;;1.5;;
48891;SDS011;50130;52.150;5.236;2022-09-28T05:10:58;3.3;;;1.6;;
48891;SDS011;50130;52.150;5.236;2022-09-28T05:12:36;5.2;;;1.9;;
48891;SDS011;50130;52.150;5.236;2022-09-28T05:15:50;3.7;;;1.5;;
48891;SDS011;50130;52.150;5.236;2022-09-28T05:17:28;3.3;;;1.5;;
48891;SDS011;50130;52.150;5.236;2022-09-28T05:19:05;5.0;;;1.7;;
48891;SDS011;50130;52.150;5.236;2022-09-28T05:22:17;2.8;;;1.4;;
48891;SDS011;50130;52.150;5.236;2022-09-28T05:23:55;3.7;;;1.7;;
48891;SDS011;50130;52.150;5.236;2022-09-28T05:25:32;4.5;;;1.6;;
48891;SDS011;50130;52.150;5.236;2022-09-28T05:27:09;4.3;;;1.6;;
48891;SDS011;50130;52.150;5.236;2022-09-28T05:30:21;5.8;;;1.7;;
48891;SDS011;50130;52.150;5.236;2022-09-28T05:32:00;4.7;;;1.6;;
48891;SDS011;50130;52.150;5.236;2022-09-28T05:33:37;4.61;;;1.7;;
48891;SDS011;50130;52.150;5.236;2022-09-28T05:36:50;6.5;;;2.0;;
48891;SDS011;50130;52.150;5.236;2022-09-28T05:38:26;4.7;;;1.7;;
48891;SDS011;50130;52.150;5.236;2022-09-28T05:40:03;3.8;;;1.5;;
48891;SDS011;50130;52.150;5.236;2022-09-28T05:43:16;4.0;;;1.7;;
48891;SDS011;50130;52.150;5.236;2022-09-28T05:44:52;3.6;;;1.7;;
48891;SDS011;50130;52.150;5.236;2022-09-28T05:46:28;4.1;;;1.8;;
48891;SDS011;50130;52.150;5.236;2022-09-28T05:48:05;2.21;;;1.4;;
48891;SDS011;50130;52.150;5.236;2022-09-28T05:51:17;3.5;;;1.7;;
48891;SDS011;50130;52.150;5.236;2022-09-28T05:52:56;3.8;;;1.8;;
48891;SDS011;50130;52.150;5.236;2022-09-28T05:54:34;2.1;;;1.6;;
48891;SDS011;50130;52.150;5.236;2022-09-28T05:57:46;3.0;;;1.3;;
48891;SDS011;50130;52.150;5.236;2022-09-28T05:59:23;3.8;;;1.5;;
48891;SDS011;50130;52.150;5.236;2022-09-28T06:00:59;5.11;;;1.8;;
48891;SDS011;50130;52.150;5.236;2022-09-28T06:04:11;3.5;;;1.7;;
48891;SDS011;50130;52.150;5.236;2022-09-28T06:05:47;2.8;;;1.8;;
48891;SDS011;50130;52.150;5.236;2022-09-28T06:07:24;4.0;;;1.5;;
48891;SDS011;50130;52.150;5.236;2022-09-28T06:09:00;4.2;;;1.8;;
48891;SDS011;50130;52.150;5.236;2022-09-28T06:12:14;4.2;;;1.9;;
48891;SDS011;50130;52.150;5.236;2022-09-28T06:13:52;2.8;;;1.6;;
48891;SDS011;50130;52.150;5.236;2022-09-28T06:15:29;2.6;;;1.7;;
48891;SDS011;50130;52.150;5.236;2022-09-28T06:18:43;2.21;;;1.8;;
48891;SDS011;50130;52.150;5.236;2022-09-28T06:20:19;5.5;;;2.1;;
48891;SDS011;50130;52.150;5.236;2022-09-28T06:21:55;3.2;;;1.8;;
48891;SDS011;50130;52.150;5.236;2022-09-28T06:26:44;2.4;;;1.8;;
48891;SDS011;50130;52.150;5.236;2022-09-28T06:28:20;8.31;;;2.1;;
48891;SDS011;50130;52.150;5.236;2022-09-28T06:29:56;3.7;;;1.6;;
48891;SDS011;50130;52.150;5.236;2022-09-28T06:33:10;2.7;;;1.4;;
48891;SDS011;50130;52.150;5.236;2022-09-28T06:34:49;3.2;;;1.7;;
48891;SDS011;50130;52.150;5.236;2022-09-28T06:36:26;4.8;;;1.8;;
48891;SDS011;50130;52.150;5.236;2022-09-28T06:39:39;2.8;;;1.9;;
48891;SDS011;50130;52.150;5.236;2022-09-28T06:41:17;2.5;;;1.7;;
48891;SDS011;50130;52.150;5.236;2022-09-28T06:42:55;2.7;;;1.8;;
48891;SDS011;50130;52.150;5.236;2022-09-28T06:44:33;3.0;;;2.1;;
48891;SDS011;50130;52.150;5.236;2022-09-28T06:47:45;3.4;;;2.0;;
48891;SDS011;50130;52.150;5.236;2022-09-28T06:49:21;2.6;;;2.1;;
48891;SDS011;50130;52.150;5.236;2022-09-28T06:50:57;3.6;;;2.21;;
48891;SDS011;50130;52.150;5.236;2022-09-28T06:54:10;3.4;;;2.4;;
48891;SDS011;50130;52.150;5.236;2022-09-28T06:55:48;4.2;;;2.5;;
48891;SDS011;50130;52.150;5.236;2022-09-28T06:57:23;6.9;;;2.7;;
48891;SDS011;50130;52.150;5.236;2022-09-28T07:00:37;5.9;;;2.8;;
48891;SDS011;50130;52.150;5.236;2022-09-28T07:02:15;3.5;;;2.6;;
48891;SDS011;50130;52.150;5.236;2022-09-28T07:03:51;3.9;;;3.0;;
48891;SDS011;50130;52.150;5.236;2022-09-28T07:05:28;4.41;;;2.9;;
48891;SDS011;50130;52.150;5.236;2022-09-28T07:08:45;7.8;;;3.5;;
48891;SDS011;50130;52.150;5.236;2022-09-28T07:10:23;6.9;;;3.7;;
48891;SDS011;50130;52.150;5.236;2022-09-28T07:12:03;8.2;;;4.7;;
48891;SDS011;50130;52.150;5.236;2022-09-28T07:15:16;5.7;;;4.2;;
48891;SDS011;50130;52.150;5.236;2022-09-28T07:16:55;8.9;;;3.7;;
48891;SDS011;50130;52.150;5.236;2022-09-28T07:18:31;10.1;;;4.5;;
48891;SDS011;50130;52.150;5.236;2022-09-28T07:20:08;9.0;;;5.6;;
48891;SDS011;50130;52.150;5.236;2022-09-28T07:23:21;9.5;;;4.41;;
48891;SDS011;50130;52.150;5.236;2022-09-28T07:24:58;8.9;;;5.3;;
48891;SDS011;50130;52.150;5.236;2022-09-28T07:26:34;10.7;;;5.2;;
48891;SDS011;50130;52.150;5.236;2022-09-28T07:29:47;9.1;;;4.2;;
48891;SDS011;50130;52.150;5.236;2022-09-28T07:31:24;7.9;;;3.9;;
48891;SDS011;50130;52.150;5.236;2022-09-28T07:33:00;10.1;;;5.7;;
48891;SDS011;50130;52.150;5.236;2022-09-28T07:36:19;7.7;;;4.5;;
48891;SDS011;50130;52.150;5.236;2022-09-28T07:37:58;6.4;;;4.7;;
48891;SDS011;50130;52.150;5.236;2022-09-28T07:41:10;7.6;;;4.0;;
48891;SDS011;50130;52.150;5.236;2022-09-28T07:42:46;8.0;;;3.8;;
48891;SDS011;50130;52.150;5.236;2022-09-28T07:44:23;10.0;;;4.1;;
48891;SDS011;50130;52.150;5.236;2022-09-28T07:45:59;9.4;;;4.41;;
48891;SDS011;50130;52.150;5.236;2022-09-28T07:47:35;7.8;;;4.2;;
48891;SDS011;50130;52.150;5.236;2022-09-28T07:50:51;10.7;;;4.61;;
48891;SDS011;50130;52.150;5.236;2022-09-28T07:52:29;9.6;;;4.7;;
48891;SDS011;50130;52.150;5.236;2022-09-28T07:54:05;7.8;;;4.61;;
48891;SDS011;50130;52.150;5.236;2022-09-28T07:55:41;4.8;;;3.1;;
48891;SDS011;50130;52.150;5.236;2022-09-28T07:58:55;6.2;;;4.0;;
48891;SDS011;50130;52.150;5.236;2022-09-28T08:00:31;8.71;;;3.5;;
48891;SDS011;50130;52.150;5.236;2022-09-28T08:02:07;6.9;;;3.0;;
48891;SDS011;50130;52.150;5.236;2022-09-28T08:05:22;8.2;;;3.3;;
48891;SDS011;50130;52.150;5.236;2022-09-28T08:06:59;6.5;;;3.3;;
48891;SDS011;50130;52.150;5.236;2022-09-28T08:08:36;6.5;;;3.3;;
48891;SDS011;50130;52.150;5.236;2022-09-28T08:11:48;5.7;;;2.9;;
48891;SDS011;50130;52.150;5.236;2022-09-28T08:13:25;6.9;;;3.6;;
48891;SDS011;50130;52.150;5.236;2022-09-28T08:15:01;4.5;;;2.4;;
48891;SDS011;50130;52.150;5.236;2022-09-28T08:16:37;4.2;;;2.8;;
48891;SDS011;50130;52.150;5.236;2022-09-28T08:22:43;6.2;;;2.8;;
48891;SDS011;50130;52.150;5.236;2022-09-28T08:24:19;6.7;;;2.0;;
48891;SDS011;50130;52.150;5.236;2022-09-28T08:25:56;6.8;;;2.7;;
48891;SDS011;50130;52.150;5.236;2022-09-28T08:27:34;5.11;;;1.9;;
48891;SDS011;50130;52.150;5.236;2022-09-28T08:29:10;3.5;;;1.2;;
48891;SDS011;50130;52.150;5.236;2022-09-28T08:32:23;4.61;;;1.6;;
48891;SDS011;50130;52.150;5.236;2022-09-28T08:33:59;3.7;;;1.5;;
48891;SDS011;50130;52.150;5.236;2022-09-28T08:35:35;4.2;;;1.3;;
48891;SDS011;50130;52.150;5.236;2022-09-28T08:38:48;4.3;;;1.5;;
48891;SDS011;50130;52.150;5.236;2022-09-28T08:40:25;2.9;;;1.0;;
48891;SDS011;50130;52.150;5.236;2022-09-28T08:42:04;4.2;;;1.11;;
48891;SDS011;50130;52.150;5.236;2022-09-28T08:43:59;3.4;;;1.0;;
48891;SDS011;50130;52.150;5.236;2022-09-28T08:50:59;1.9;;;0.8;;
48891;SDS011;50130;52.150;5.236;2022-09-28T08:52:52;4.0;;;0.8;;
48891;SDS011;50130;52.150;5.236;2022-09-28T08:54:42;4.2;;;1.0;;
48891;SDS011;50130;52.150;5.236;2022-09-28T08:56:27;3.8;;;1.3;;
48891;SDS011;50130;52.150;5.236;2022-09-28T08:59:51;2.4;;;1.2;;
48891;SDS011;50130;52.150;5.236;2022-09-28T09:01:30;2.21;;;0.8;;
48891;SDS011;50130;52.150;5.236;2022-09-28T09:03:12;1.8;;;0.5;;
48891;SDS011;50130;52.150;5.236;2022-09-28T09:04:53;1.9;;;0.6;;
48891;SDS011;50130;52.150;5.236;2022-09-28T09:08:30;2.4;;;0.4;;
48891;SDS011;50130;52.150;5.236;2022-09-28T09:10:26;4.0;;;0.5;;
48891;SDS011;50130;52.150;5.236;2022-09-28T09:12:18;3.8;;;0.7;;
48891;SDS011;50130;52.150;5.236;2022-09-28T09:14:11;2.1;;;0.7;;
48891;SDS011;50130;52.150;5.236;2022-09-28T09:17:03;1.9;;;0.7;;
48891;SDS011;50130;52.150;5.236;2022-09-28T09:18:51;1.7;;;0.5;;
48891;SDS011;50130;52.150;5.236;2022-09-28T09:20:39;1.9;;;0.5;;
48891;SDS011;50130;52.150;5.236;2022-09-28T09:22:29;4.2;;;0.6;;
48891;SDS011;50130;52.150;5.236;2022-09-28T09:24:17;1.7;;;0.5;;
48891;SDS011;50130;52.150;5.236;2022-09-28T09:26:02;1.4;;;0.5;;
48891;SDS011;50130;52.150;5.236;2022-09-28T09:27:53;3.4;;;0.7;;
48891;SDS011;50130;52.150;5.236;2022-09-28T09:31:41;2.21;;;0.3;;
48891;SDS011;50130;52.150;5.236;2022-09-28T09:33:37;1.4;;;0.5;;
48891;SDS011;50130;52.150;5.236;2022-09-28T09:36:33;1.6;;;0.8;;
48891;SDS011;50130;52.150;5.236;2022-09-28T09:38:24;3.1;;;0.5;;
48891;SDS011;50130;52.150;5.236;2022-09-28T09:40:22;2.5;;;0.5;;
48891;SDS011;50130;52.150;5.236;2022-09-28T09:44:07;1.8;;;0.4;;
48891;SDS011;50130;52.150;5.236;2022-09-28T09:46:13;0.9;;;0.3;;
48891;SDS011;50130;52.150;5.236;2022-09-28T09:47:55;1.5;;;0.4;;
48891;SDS011;50130;52.150;5.236;2022-09-28T09:49:37;1.2;;;0.3;;
48891;SDS011;50130;52.150;5.236;2022-09-28T09:51:20;3.1;;;0.3;;
48891;SDS011;50130;52.150;5.236;2022-09-28T09:53:03;1.9;;;0.5;;
48891;SDS011;50130;52.150;5.236;2022-09-28T09:54:50;1.5;;;0.4;;
48891;SDS011;50130;52.150;5.236;2022-09-28T09:58:17;3.2;;;0.4;;
48891;SDS011;50130;52.150;5.236;2022-09-28T09:59:59;1.8;;;0.3;;
48891;SDS011;50130;52.150;5.236;2022-09-28T10:01:38;2.21;;;0.3;;
48891;SDS011;50130;52.150;5.236;2022-09-28T10:03:18;1.2;;;0.5;;
48891;SDS011;50130;52.150;5.236;2022-09-28T10:06:42;1.8;;;0.3;;
48891;SDS011;50130;52.150;5.236;2022-09-28T10:08:19;2.6;;;0.3;;
48891;SDS011;50130;52.150;5.236;2022-09-28T10:09:58;2.31;;;0.6;;
48891;SDS011;50130;52.150;5.236;2022-09-28T10:11:38;1.0;;;0.8;;
48891;SDS011;50130;52.150;5.236;2022-09-28T10:14:54;1.3;;;0.4;;
48891;SDS011;50130;52.150;5.236;2022-09-28T10:16:32;1.7;;;0.5;;
48891;SDS011;50130;52.150;5.236;2022-09-28T10:18:11;1.4;;;0.4;;
48891;SDS011;50130;52.150;5.236;2022-09-28T10:21:26;3.0;;;0.5;;
48891;SDS011;50130;52.150;5.236;2022-09-28T10:23:04;1.8;;;0.4;;
48891;SDS011;50130;52.150;5.236;2022-09-28T10:24:50;2.1;;;0.5;;
48891;SDS011;50130;52.150;5.236;2022-09-28T10:26:31;4.3;;;0.5;;
48891;SDS011;50130;52.150;5.236;2022-09-28T10:29:56;2.6;;;0.6;;
48891;SDS011;50130;52.150;5.236;2022-09-28T10:31:37;1.7;;;0.4;;
48891;SDS011;50130;52.150;5.236;2022-09-28T10:33:32;0.5;;;0.3;;
48891;SDS011;50130;52.150;5.236;2022-09-28T10:35:11;2.8;;;0.5;;
48891;SDS011;50130;52.150;5.236;2022-09-28T10:36:57;2.8;;;0.7;;
48891;SDS011;50130;52.150;5.236;2022-09-28T10:40:45;1.8;;;0.5;;
48891;SDS011;50130;52.150;5.236;2022-09-28T10:42:25;1.0;;;0.7;;
48891;SDS011;50130;52.150;5.236;2022-09-28T10:44:05;11.9;;;7.4;;
48891;SDS011;50130;52.150;5.236;2022-09-28T10:46:00;29.0;;;17.11;;
48891;SDS011;50130;52.150;5.236;2022-09-28T10:47:41;5.11;;;2.31;;
48891;SDS011;50130;52.150;5.236;2022-09-28T10:49:19;16.7;;;9.21;;
48891;SDS011;50130;52.150;5.236;2022-09-28T10:52:39;19.61;;;8.9;;
48891;SDS011;50130;52.150;5.236;2022-09-28T10:54:18;12.5;;;6.2;;
48891;SDS011;50130;52.150;5.236;2022-09-28T10:55:57;7.2;;;4.3;;
48891;SDS011;50130;52.150;5.236;2022-09-28T10:57:36;13.9;;;6.4;;
48891;SDS011;50130;52.150;5.236;2022-09-28T11:01:21;4.1;;;2.6;;
48891;SDS011;50130;52.150;5.236;2022-09-28T11:03:01;7.1;;;4.3;;
48891;SDS011;50130;52.150;5.236;2022-09-28T11:04:39;2.6;;;1.3;;
48891;SDS011;50130;52.150;5.236;2022-09-28T11:06:22;1.0;;;0.3;;
48891;SDS011;50130;52.150;5.236;2022-09-28T11:09:44;5.11;;;3.1;;
48891;SDS011;50130;52.150;5.236;2022-09-28T11:11:23;16.0;;;10.0;;
48891;SDS011;50130;52.150;5.236;2022-09-28T11:13:00;12.2;;;7.9;;
48891;SDS011;50130;52.150;5.236;2022-09-28T11:14:37;9.21;;;5.4;;
48891;SDS011;50130;52.150;5.236;2022-09-28T11:18:16;2.5;;;1.2;;
48891;SDS011;50130;52.150;5.236;2022-09-28T11:19:54;1.6;;;0.6;;
48891;SDS011;50130;52.150;5.236;2022-09-28T11:21:39;3.6;;;0.8;;
48891;SDS011;50130;52.150;5.236;2022-09-28T11:23:18;1.9;;;0.5;;
48891;SDS011;50130;52.150;5.236;2022-09-28T11:25:30;3.1;;;1.4;;
48891;SDS011;50130;52.150;5.236;2022-09-28T11:27:09;3.1;;;0.9;;
48891;SDS011;50130;52.150;5.236;2022-09-28T11:30:36;2.9;;;0.5;;
48891;SDS011;50130;52.150;5.236;2022-09-28T11:32:19;1.5;;;0.4;;
48891;SDS011;50130;52.150;5.236;2022-09-28T11:34:02;3.0;;;0.5;;
48891;SDS011;50130;52.150;5.236;2022-09-28T11:35:48;2.7;;;0.5;;
48891;SDS011;50130;52.150;5.236;2022-09-28T11:37:34;1.5;;;0.5;;
48891;SDS011;50130;52.150;5.236;2022-09-28T11:41:15;2.31;;;0.8;;
48891;SDS011;50130;52.150;5.236;2022-09-28T11:43:21;3.0;;;0.7;;
48891;SDS011;50130;52.150;5.236;2022-09-28T11:45:18;2.4;;;0.5;;
48891;SDS011;50130;52.150;5.236;2022-09-28T11:47:13;2.31;;;0.5;;
48891;SDS011;50130;52.150;5.236;2022-09-28T11:49:10;1.9;;;0.4;;
48891;SDS011;50130;52.150;5.236;2022-09-28T11:51:01;3.3;;;0.6;;
48891;SDS011;50130;52.150;5.236;2022-09-28T11:52:44;1.7;;;0.3;;
48891;SDS011;50130;52.150;5.236;2022-09-28T11:54:31;2.5;;;0.4;;
48891;SDS011;50130;52.150;5.236;2022-09-28T11:56:17;2.21;;;0.4;;
48891;SDS011;50130;52.150;5.236;2022-09-28T11:59:51;2.0;;;0.3;;
48891;SDS011;50130;52.150;5.236;2022-09-28T12:01:35;1.9;;;0.4;;
48891;SDS011;50130;52.150;5.236;2022-09-28T12:03:19;1.7;;;0.5;;
48891;SDS011;50130;52.150;5.236;2022-09-28T12:05:05;1.8;;;0.4;;
48891;SDS011;50130;52.150;5.236;2022-09-28T12:06:52;1.11;;;0.4;;
48891;SDS011;50130;52.150;5.236;2022-09-28T12:10:36;1.5;;;0.5;;
48891;SDS011;50130;52.150;5.236;2022-09-28T12:12:16;1.5;;;0.5;;
48891;SDS011;50130;52.150;5.236;2022-09-28T12:14:09;1.6;;;0.4;;
48891;SDS011;50130;52.150;5.236;2022-09-28T12:15:58;1.3;;;0.3;;
48891;SDS011;50130;52.150;5.236;2022-09-28T12:17:37;2.7;;;0.4;;
48891;SDS011;50130;52.150;5.236;2022-09-28T12:19:19;2.5;;;0.3;;
48891;SDS011;50130;52.150;5.236;2022-09-28T12:23:02;3.7;;;0.6;;
48891;SDS011;50130;52.150;5.236;2022-09-28T12:24:47;2.0;;;0.7;;
48891;SDS011;50130;52.150;5.236;2022-09-28T12:26:27;3.1;;;0.7;;
48891;SDS011;50130;52.150;5.236;2022-09-28T12:28:11;1.4;;;0.4;;
48891;SDS011;50130;52.150;5.236;2022-09-28T12:29:59;2.9;;;0.8;;
48891;SDS011;50130;52.150;5.236;2022-09-28T12:33:30;4.0;;;1.0;;
48891;SDS011;50130;52.150;5.236;2022-09-28T12:35:11;8.2;;;1.6;;
48891;SDS011;50130;52.150;5.236;2022-09-28T12:36:54;6.0;;;1.6;;
48891;SDS011;50130;52.150;5.236;2022-09-28T12:38:51;5.2;;;1.3;;
48891;SDS011;50130;52.150;5.236;2022-09-28T12:40:40;4.2;;;1.5;;
48891;SDS011;50130;52.150;5.236;2022-09-28T12:42:34;4.2;;;1.0;;
48891;SDS011;50130;52.150;5.236;2022-09-28T12:44:40;6.3;;;1.11;;
48891;SDS011;50130;52.150;5.236;2022-09-28T12:46:52;5.2;;;1.3;;
48891;SDS011;50130;52.150;5.236;2022-09-28T12:48:55;6.8;;;1.4;;
48891;SDS011;50130;52.150;5.236;2022-09-28T12:51:21;4.3;;;1.2;;
48891;SDS011;50130;52.150;5.236;2022-09-28T12:53:18;3.7;;;1.11;;
48891;SDS011;50130;52.150;5.236;2022-09-28T12:55:21;2.5;;;0.7;;
48891;SDS011;50130;52.150;5.236;2022-09-28T12:57:14;1.8;;;0.6;;
48891;SDS011;50130;52.150;5.236;2022-09-28T12:59:17;2.9;;;0.7;;
48891;SDS011;50130;52.150;5.236;2022-09-28T13:01:05;1.9;;;0.5;;
48891;SDS011;50130;52.150;5.236;2022-09-28T13:05:24;1.6;;;0.8;;
48891;SDS011;50130;52.150;5.236;2022-09-28T13:07:19;3.5;;;0.7;;
48891;SDS011;50130;52.150;5.236;2022-09-28T13:10:58;5.4;;;1.0;;
48891;SDS011;50130;52.150;5.236;2022-09-28T13:12:58;0.3;;;0.1;;
48891;SDS011;50130;52.150;5.236;2022-09-28T13:15:23;2.0;;;0.4;;
48891;SDS011;50130;52.150;5.236;2022-09-28T13:17:39;2.0;;;0.6;;